createdAt,value
2017-07-08T00:00:22.820Z,20.00
2017-07-08T00:02:50.385Z,19.90
2017-07-08T00:05:17.919Z,19.60
2017-07-08T00:07:45.482Z,19.80
2017-07-08T00:10:13.026Z,19.80
2017-07-08T00:12:40.632Z,19.50
2017-07-08T00:15:08.170Z,19.80
2017-07-08T00:17:35.707Z,20.00
2017-07-08T00:20:03.247Z,20.10
2017-07-08T00:22:30.800Z,20.20
2017-07-08T00:24:58.358Z,20.50
2017-07-08T00:27:25.910Z,20.00
2017-07-08T00:29:53.586Z,19.70
2017-07-08T00:32:21.126Z,19.60
2017-07-08T00:34:48.797Z,19.50
2017-07-08T00:37:16.327Z,19.60
2017-07-08T00:39:43.892Z,19.40
2017-07-08T00:42:11.445Z,19.50
2017-07-08T00:44:39.022Z,19.50
2017-07-08T00:47:06.548Z,19.50
2017-07-08T00:49:34.092Z,19.50
2017-07-08T00:52:01.649Z,20.00
2017-07-08T00:54:29.183Z,20.10
2017-07-08T00:56:56.754Z,19.70
2017-07-08T00:59:24.299Z,19.60
2017-07-08T01:01:51.838Z,19.60
2017-07-08T01:04:19.431Z,19.70
2017-07-08T01:06:46.995Z,19.80
2017-07-08T01:09:14.547Z,19.60
2017-07-08T01:11:42.109Z,19.40
2017-07-08T01:14:09.684Z,19.20
2017-07-08T01:16:37.273Z,19.10
2017-07-08T01:19:04.829Z,19.30
2017-07-08T01:21:33.166Z,19.60
2017-07-08T01:24:00.729Z,19.60
2017-07-08T01:26:28.277Z,19.30
2017-07-08T01:28:55.832Z,19.20
2017-07-08T01:31:23.374Z,18.80
2017-07-08T01:33:50.941Z,18.90
2017-07-08T01:36:18.480Z,19.00
2017-07-08T01:38:46.063Z,19.00
2017-07-08T01:41:13.608Z,18.90
2017-07-08T01:43:41.209Z,18.80
2017-07-08T01:46:08.741Z,18.70
2017-07-08T01:48:36.291Z,18.70
2017-07-08T01:51:03.828Z,19.00
2017-07-08T01:53:32.133Z,19.50
2017-07-08T01:56:00.555Z,19.60
2017-07-08T01:58:28.103Z,19.60
2017-07-08T02:00:55.672Z,19.00
2017-07-08T02:03:23.215Z,18.90
2017-07-08T02:05:50.790Z,19.00
2017-07-08T02:08:18.321Z,19.20
2017-07-08T02:10:45.900Z,19.30
2017-07-08T02:13:13.497Z,18.80
2017-07-08T02:15:41.052Z,19.10
2017-07-08T02:18:08.600Z,19.50
2017-07-08T02:20:36.151Z,19.70
2017-07-08T02:23:03.692Z,19.20
2017-07-08T02:25:31.285Z,19.40
2017-07-08T02:27:58.829Z,19.40
2017-07-08T02:30:26.460Z,19.50
2017-07-08T02:32:54.009Z,19.40
2017-07-08T02:35:21.569Z,19.50
2017-07-08T02:37:49.874Z,19.60
2017-07-08T02:40:17.430Z,19.60
2017-07-08T02:42:45.009Z,19.60
2017-07-08T02:45:12.542Z,19.30
2017-07-08T02:47:40.143Z,19.40
2017-07-08T02:50:07.710Z,19.50
2017-07-08T02:52:35.271Z,19.40
2017-07-08T02:55:02.796Z,19.10
2017-07-08T02:57:30.402Z,18.80
2017-07-08T02:59:57.945Z,18.60
2017-07-08T03:02:25.512Z,18.40
2017-07-08T03:04:53.030Z,18.30
2017-07-08T03:07:20.636Z,18.50
2017-07-08T03:09:48.182Z,18.50
2017-07-08T03:12:15.768Z,18.50
2017-07-08T03:14:43.319Z,18.40
2017-07-08T03:17:10.871Z,18.60
2017-07-08T03:19:38.416Z,18.80
2017-07-08T03:22:05.946Z,18.90
2017-07-08T03:24:33.515Z,19.10
2017-07-08T03:27:01.115Z,18.70
2017-07-08T03:29:28.667Z,18.80
2017-07-08T03:31:56.222Z,18.60
2017-07-08T03:34:23.775Z,18.70
2017-07-08T03:36:51.310Z,18.40
2017-07-08T03:39:18.877Z,18.50
2017-07-08T03:41:46.406Z,18.40
2017-07-08T03:44:13.972Z,18.30
2017-07-08T03:46:41.553Z,18.30
2017-07-08T03:49:09.113Z,18.20
2017-07-08T03:51:36.645Z,18.20
2017-07-08T03:54:04.213Z,18.30
2017-07-08T03:56:32.062Z,18.40
2017-07-08T03:58:59.726Z,18.50
2017-07-08T04:01:28.053Z,18.50
2017-07-08T04:03:55.598Z,18.50
2017-07-08T04:06:23.161Z,18.50
2017-07-08T04:08:50.681Z,18.50
2017-07-08T04:11:18.234Z,18.50
2017-07-08T04:13:45.754Z,18.60
2017-07-08T04:16:13.319Z,18.90
2017-07-08T04:18:40.848Z,18.90
2017-07-08T04:21:08.407Z,19.10
2017-07-08T04:23:35.947Z,19.30
2017-07-08T04:26:03.506Z,19.40
2017-07-08T04:28:31.059Z,19.50
2017-07-08T04:30:59.361Z,19.90
2017-07-08T04:33:26.915Z,19.80
2017-07-08T04:35:54.456Z,20.00
2017-07-08T04:38:22.013Z,20.00
2017-07-08T04:40:49.546Z,20.50
2017-07-08T04:43:17.094Z,20.50
2017-07-08T04:45:44.633Z,20.30
2017-07-08T04:48:12.194Z,20.40
2017-07-08T04:50:39.743Z,20.40
2017-07-08T04:53:07.304Z,20.60
2017-07-08T04:55:34.842Z,20.80
2017-07-08T04:58:02.390Z,20.60
2017-07-08T05:00:30.678Z,20.60
2017-07-08T05:02:58.236Z,20.60
2017-07-08T05:05:25.775Z,20.90
2017-07-08T05:07:53.335Z,21.00
2017-07-08T05:10:20.857Z,20.70
2017-07-08T05:12:48.380Z,20.60
2017-07-08T05:15:16.700Z,20.70
2017-07-08T05:17:44.250Z,20.70
2017-07-08T05:20:11.804Z,21.00
2017-07-08T05:22:39.360Z,20.60
2017-07-08T05:25:06.919Z,20.90
2017-07-08T05:27:34.465Z,20.80
2017-07-08T05:30:02.774Z,21.10
2017-07-08T05:32:30.356Z,21.10
2017-07-08T05:34:57.927Z,21.10
2017-07-08T05:37:25.454Z,21.10
2017-07-08T05:39:53.038Z,21.30
2017-07-08T05:42:20.578Z,21.20
2017-07-08T05:44:48.102Z,21.30
2017-07-08T05:47:16.409Z,21.80
2017-07-08T05:49:43.953Z,21.80
2017-07-08T05:52:11.505Z,21.80
2017-07-08T05:54:39.065Z,21.70
2017-07-08T05:57:06.619Z,21.80
2017-07-08T05:59:34.172Z,21.70
2017-07-08T06:02:02.504Z,21.70
2017-07-08T06:04:30.074Z,21.70
2017-07-08T06:06:57.622Z,21.50
2017-07-08T06:09:25.158Z,21.40
2017-07-08T06:11:52.739Z,21.40
2017-07-08T06:14:20.287Z,21.10
2017-07-08T06:16:47.881Z,21.20
2017-07-08T06:19:15.416Z,20.90
2017-07-08T06:21:42.965Z,21.00
2017-07-08T06:24:10.486Z,21.30
2017-07-08T06:26:38.035Z,21.20
2017-07-08T06:29:05.592Z,21.10
2017-07-08T06:31:33.154Z,21.40
2017-07-08T06:34:00.711Z,21.30
2017-07-08T06:36:28.257Z,21.20
2017-07-08T06:38:55.811Z,21.40
2017-07-08T06:41:23.342Z,21.20
2017-07-08T06:43:50.899Z,21.60
2017-07-08T06:46:18.439Z,21.50
2017-07-08T06:48:45.995Z,21.30
2017-07-08T06:51:13.624Z,21.30
2017-07-08T06:53:41.189Z,21.40
2017-07-08T06:56:08.726Z,21.30
2017-07-08T06:58:36.257Z,21.10
2017-07-08T07:01:03.802Z,21.50
2017-07-08T07:03:32.140Z,21.40
2017-07-08T07:05:59.712Z,21.40
2017-07-08T07:08:27.272Z,21.40
2017-07-08T07:10:54.830Z,21.40
2017-07-08T07:13:22.366Z,21.20
2017-07-08T07:15:49.905Z,21.00
2017-07-08T07:18:17.494Z,21.00
2017-07-08T07:20:45.013Z,20.80
2017-07-08T07:23:12.551Z,21.10
2017-07-08T07:25:40.094Z,21.30
2017-07-08T07:28:07.626Z,21.30
2017-07-08T07:30:35.180Z,21.30
2017-07-08T07:33:02.716Z,21.30
2017-07-08T07:35:30.245Z,21.10
2017-07-08T07:37:57.804Z,21.30
2017-07-08T07:40:25.427Z,21.10
2017-07-08T07:42:52.988Z,21.10
2017-07-08T07:45:20.532Z,21.00
2017-07-08T07:47:48.105Z,21.10
2017-07-08T07:50:15.631Z,21.10
2017-07-08T07:52:43.187Z,21.10
2017-07-08T07:55:11.481Z,21.50
2017-07-08T07:57:39.049Z,21.40
2017-07-08T08:00:06.580Z,21.40
2017-07-08T08:02:34.899Z,21.80
2017-07-08T08:05:02.426Z,21.80
2017-07-08T08:07:30.758Z,21.90
2017-07-08T08:09:58.303Z,21.90
2017-07-08T08:12:25.839Z,21.40
